Hutchinson, MN

8:24 PM CST on December 15, 2019 (GMT -0600)
Hutchinson Municipal-Butler

Weather History for KHCD - October, 2019

Change the Weather History Date:

Monday, October 21, 2019

  Actual Average Record
Temperature  
Mean Temperature 48 °F -  
Max Temperature 55 °F 56 °F 78 °F (1978)
Min Temperature 41 °F 35 °F 22 °F (1967)
Degree Days  
Heating Degree Days 17    
Moisture  
Dew Point 45 °F    
Average Humidity 91    
Maximum Humidity 100    
Minimum Humidity 66    
Precipitation  
Precipitation 1.23 in - - ()
Sea Level Pressure  
Sea Level Pressure 29.32 in    
Wind  
Wind Speed 13 mph (NNE)    
Max Wind Speed 28 mph    
Max Gust Speed 38 mph    
Visibility 8 miles    
Events Rain    
Averages and records for this station are not official NWS values.
T = Trace of Precipitation, MM = Missing Value Source: NWS Daily Summary

Daily Weather History Graph

Daily Weather History Graph

Search for Another Location

Airport or City:

Astronomy

Oct. 21, 2019 Rise Set
Actual Time 7:40 AM CDT 6:22 PM CDT
Civil Twilight 7:10 AM CDT 6:52 PM CDT
Nautical Twilight 6:36 AM CDT 7:26 PM CDT
Astronomical Twilight 6:02 AM CDT 8:00 PM CDT
Moon No Moon Rise 3:08 PM CDT (10/21)
Length of Visible Light 11h 41m
Length of Day
10h 42m
Waning Gibbous, 48% of the Moon is Illuminated
Oct 21
Waning Gibbous
Oct 27
New
Nov 4
First Quarter
Nov 12
Full
Nov 19
Last Quarter

Hourly Weather History & Observations

Time (CDT) Temp. Windchill Dew Point Humidity Pressure Visibility Wind Dir Wind Speed Gust Speed Precip Events Conditions
12:15 AM 55.0 °F - 45.3 °F 70% 29.71 in 10.0 mi ESE 12.7 mph - N/A Rain Light Rain
12:19 AM 54.5 °F - 45.5 °F 72% 29.71 in 10.0 mi ESE 12.7 mph 17.3 mph N/A   Light Drizzle
12:37 AM 54.5 °F - 45.7 °F 72% 29.69 in 10.0 mi East 12.7 mph - N/A Rain Light Rain
12:56 AM 54.9 °F - 45.3 °F 70% 29.68 in 10.0 mi East 11.5 mph - N/A   Overcast
1:15 AM 55.0 °F - 45.5 °F 70% 29.66 in 10.0 mi ESE 12.7 mph 18.4 mph N/A   Overcast
1:16 AM 55.0 °F - 45.5 °F 70% 29.66 in 10.0 mi ESE 11.5 mph 18.4 mph N/A   Overcast
1:35 AM 55.0 °F - 45.0 °F 69% 29.65 in 10.0 mi East 16.1 mph 20.7 mph N/A   Overcast
1:36 AM 55.0 °F - 45.0 °F 69% 29.65 in 10.0 mi East 15.0 mph 20.7 mph N/A   Overcast
1:59 AM 54.5 °F - 45.0 °F 70% 29.64 in 10.0 mi East 11.5 mph - N/A   Overcast
2:17 AM 54.5 °F - 44.8 °F 70% 29.62 in 10.0 mi East 10.4 mph - N/A   Overcast
2:35 AM 54.1 °F - 44.2 °F 69% 29.61 in 10.0 mi East 12.7 mph - N/A   Overcast
2:55 AM 54.5 °F - 43.9 °F 67% 29.61 in 10.0 mi East 13.8 mph 19.6 mph N/A   Overcast
2:56 AM 54.5 °F - 43.7 °F 67% 29.61 in 10.0 mi East 15.0 mph 19.6 mph N/A   Overcast
3:37 AM 52.9 °F - 44.8 °F 74% 29.57 in 10.0 mi East 16.1 mph 20.7 mph N/A Rain Light Rain
3:55 AM 52.3 °F - 45.0 °F 76% 29.56 in 10.0 mi East 19.6 mph 29.9 mph N/A Rain Light Rain
4:15 AM 52.0 °F - 42.8 °F 71% 29.52 in 10.0 mi East 18.4 mph 31.1 mph N/A   Mostly Cloudy
4:16 AM 52.0 °F - 42.8 °F 71% 29.52 in 10.0 mi East 19.6 mph 31.1 mph N/A   Mostly Cloudy
4:35 AM 52.2 °F - 41.9 °F 68% 29.50 in 10.0 mi East 16.1 mph 25.3 mph N/A   Mostly Cloudy
4:40 AM 52.2 °F - 41.5 °F 67% 29.50 in 10.0 mi East 13.8 mph 25.3 mph N/A   Mostly Cloudy
4:57 AM 52.3 °F - 41.2 °F 66% 29.48 in 10.0 mi East 16.1 mph 24.2 mph N/A   Overcast
5:15 AM 51.8 °F - 42.1 °F 69% 29.47 in 10.0 mi ENE 17.3 mph 29.9 mph N/A   Mostly Cloudy
5:35 AM 50.9 °F - 42.8 °F 74% 29.47 in 10.0 mi East 12.7 mph 20.7 mph N/A   Light Drizzle
5:36 AM 50.9 °F - 42.8 °F 74% 29.47 in 10.0 mi East 13.8 mph 20.7 mph N/A   Light Drizzle
5:55 AM 49.6 °F - 44.2 °F 82% 29.47 in 10.0 mi East 19.6 mph 34.5 mph N/A Rain Light Rain
5:56 AM 49.5 °F - 44.4 °F 83% 29.47 in 10.0 mi East 19.6 mph 34.5 mph N/A Rain Light Rain
6:18 AM 49.1 °F - 45.5 °F 87% 29.46 in 10.0 mi ENE 13.8 mph 24.2 mph 0.02 in Rain Light Rain
6:36 AM 48.7 °F - 45.7 °F 89% 29.46 in 10.0 mi ENE 15.0 mph 24.2 mph 0.03 in Rain Light Rain
6:55 AM 48.4 °F - 45.9 °F 91% 29.45 in 7.0 mi ENE 6.9 mph 17.3 mph 0.06 in Rain Rain
6:56 AM 48.4 °F - 45.9 °F 91% 29.45 in 7.0 mi ENE 8.1 mph 17.3 mph 0.06 in Rain Rain
7:15 AM 48.6 °F - 45.9 °F 90% 29.45 in 10.0 mi ENE 10.4 mph 17.3 mph 0.01 in Rain Light Rain
7:16 AM 48.6 °F - 45.9 °F 90% 29.45 in 10.0 mi ENE 10.4 mph 17.3 mph 0.01 in Rain Rain
7:35 AM 48.2 °F - 46.4 °F 93% 29.43 in 10.0 mi NE 5.8 mph - 0.04 in Rain Rain
7:39 AM 48.2 °F - 46.4 °F 93% 29.43 in 10.0 mi NE 5.8 mph - 0.04 in Rain Light Rain
7:58 AM 47.8 °F - 46.4 °F 95% 29.42 in 7.0 mi NE 6.9 mph - 0.07 in Rain Rain
8:16 AM 47.5 °F - 46.4 °F 96% 29.39 in 7.0 mi NNE 10.4 mph 16.1 mph 0.02 in Rain Rain
8:35 AM 47.3 °F - 46.0 °F 95% 29.38 in 5.0 mi NNE 11.5 mph 19.6 mph 0.06 in Rain Rain
8:36 AM 47.3 °F - 46.2 °F 96% 29.38 in 5.0 mi NE 12.7 mph 19.6 mph 0.06 in Rain Rain
8:55 AM 46.8 °F - 45.9 °F 97% 29.36 in 7.0 mi NNE 15.0 mph 21.9 mph 0.08 in Rain Rain
9:18 AM 46.6 °F - 45.9 °F 97% 29.35 in 10.0 mi NE 12.7 mph 19.6 mph 0.03 in Rain Light Rain
9:37 AM 46.6 °F - 45.9 °F 97% 29.34 in 5.0 mi NNE 13.8 mph 20.7 mph 0.07 in Rain Rain
9:56 AM 46.4 °F 41.1 °F 45.9 °F 98% 29.33 in 5.0 mi NE 11.5 mph 19.6 mph 0.13 in Rain Rain
10:15 AM 46.4 °F 41.5 °F 45.9 °F 98% 29.32 in 3.0 mi NE 10.4 mph - 0.08 in Rain Heavy Rain
10:16 AM 46.4 °F 41.1 °F 45.9 °F 98% 29.32 in 3.0 mi NE 11.5 mph 16.1 mph 0.09 in Rain Heavy Rain
10:35 AM 46.4 °F 40.4 °F 45.9 °F 98% 29.31 in 5.0 mi NNE 13.8 mph 20.7 mph 0.14 in Rain Rain
10:39 AM 46.4 °F 40.7 °F 45.9 °F 98% 29.30 in 5.0 mi NNE 12.7 mph 20.7 mph 0.15 in Rain Rain
10:57 AM 46.4 °F 40.7 °F 45.9 °F 98% 29.29 in 5.0 mi NE 12.7 mph 20.7 mph 0.22 in Rain Rain
11:15 AM 46.6 °F - 46.0 °F 98% 29.27 in 7.0 mi NNE 12.7 mph 21.9 mph 0.02 in Rain Light Rain
11:35 AM 46.9 °F - 46.4 °F 98% 29.25 in 7.0 mi North 11.5 mph 18.4 mph 0.05 in Rain Light Rain
11:55 AM 46.0 °F 40.6 °F 45.5 °F 98% 29.24 in 10.0 mi North 11.5 mph 19.6 mph 0.05 in Rain Light Rain
11:56 AM 46.0 °F 40.6 °F 45.5 °F 98% 29.24 in 10.0 mi North 11.5 mph 19.6 mph 0.05 in Rain Light Rain
12:18 PM 46.0 °F 41.4 °F 45.5 °F 98% 29.22 in 5.0 mi North 9.2 mph 17.3 mph 0.01 in Rain Light Rain
12:36 PM 45.9 °F 41.7 °F 45.5 °F 99% 29.21 in 3.0 mi North 8.1 mph - 0.04 in Rain Rain
12:56 PM 45.9 °F 42.3 °F 45.5 °F 99% 29.19 in 4.0 mi North 6.9 mph 17.3 mph 0.06 in Rain Rain
1:15 PM 45.9 °F 41.7 °F 45.5 °F 99% 29.18 in 5.0 mi North 8.1 mph - 0.01 in Rain Rain
1:16 PM 46.0 °F 42.5 °F 45.7 °F 99% 29.18 in 5.0 mi North 6.9 mph - 0.01 in Rain Rain
1:35 PM 46.4 °F 41.9 °F 46.0 °F 99% 29.15 in 5.0 mi North 9.2 mph - 0.05 in Rain Light Rain
1:39 PM 46.4 °F 41.9 °F 46.2 °F 99% 29.15 in 7.0 mi North 9.2 mph - 0.05 in Rain Light Rain
2:16 PM 47.3 °F - 46.6 °F 97% 29.14 in 5.0 mi North 5.8 mph - 0.03 in Rain Rain
2:35 PM 47.3 °F - 46.6 °F 97% 29.13 in 7.0 mi NNE 5.8 mph - 0.05 in Rain Rain
2:36 PM 47.3 °F - 46.6 °F 97% 29.13 in 7.0 mi North 3.5 mph - 0.05 in Rain Rain
2:55 PM 47.3 °F - 46.8 °F 98% 29.13 in 7.0 mi North 3.5 mph - 0.09 in Rain Rain
2:59 PM 47.3 °F - 46.8 °F 98% 29.13 in 7.0 mi Calm Calm - 0.09 in Rain Rain
3:17 PM 47.5 °F - 47.1 °F 99% 29.13 in 3.0 mi NNW 3.5 mph - 0.05 in Rain Rain
3:35 PM 47.5 °F - 47.1 °F 99% 29.13 in 5.0 mi NW 5.8 mph - 0.08 in Rain Light Rain
3:55 PM 47.5 °F - 47.3 °F 99% 29.12 in 7.0 mi NW 8.1 mph - 0.09 in Rain Light Rain
3:56 PM 47.3 °F - 47.3 °F 100% 29.12 in 7.0 mi NW 6.9 mph - 0.09 in Rain Light Rain
4:15 PM 47.3 °F - 46.9 °F 99% 29.12 in 10.0 mi NW 6.9 mph - N/A Rain Light Rain
4:16 PM 47.3 °F - 46.9 °F 99% 29.12 in 10.0 mi WNW 5.8 mph - 0.01 in Rain Light Rain
4:38 PM 47.5 °F - 47.3 °F 99% 29.11 in 7.0 mi NW 5.8 mph - 0.04 in Rain Rain
4:56 PM 47.3 °F - 47.1 °F 99% 29.11 in 10.0 mi NW 9.2 mph - 0.07 in Rain Rain
5:15 PM 47.3 °F - 46.9 °F 99% 29.11 in 10.0 mi NW 6.9 mph - 0.01 in Rain Light Rain
5:16 PM 47.3 °F - 46.9 °F 99% 29.11 in 10.0 mi NW 5.8 mph - 0.01 in Rain Light Rain
5:35 PM 47.3 °F - 46.8 °F 98% 29.11 in 10.0 mi NW 10.4 mph - 0.02 in Rain Light Rain
5:36 PM 47.3 °F - 46.8 °F 98% 29.11 in 10.0 mi NW 11.5 mph - 0.02 in Rain Light Rain
5:59 PM 46.9 °F - 46.6 °F 99% 29.11 in 10.0 mi NW 8.1 mph - 0.03 in Rain Light Rain
6:16 PM 46.9 °F - 46.6 °F 99% 29.11 in 10.0 mi NW 8.1 mph - N/A Rain Light Rain
6:36 PM 46.9 °F - 46.6 °F 99% 29.11 in 10.0 mi NW 11.5 mph - 0.01 in Rain Light Rain
6:55 PM 46.9 °F - 46.4 °F 98% 29.11 in 4.0 mi NW 12.7 mph 21.9 mph 0.02 in Rain Rain
6:56 PM 46.9 °F - 46.4 °F 98% 29.11 in 3.0 mi NW 12.7 mph 21.9 mph 0.02 in Rain Rain
7:15 PM 46.6 °F - 46.4 °F 99% 29.12 in 2.5 mi NW 11.5 mph - 0.02 in Rain Heavy Rain
7:37 PM 46.6 °F - 46.4 °F 99% 29.13 in 3.0 mi NW 16.1 mph 21.9 mph 0.04 in Rain Rain
7:55 PM 46.0 °F 39.9 °F 45.7 °F 99% 29.14 in 2.5 mi NW 13.8 mph 25.3 mph 0.06 in Rain Light Rain
8:15 PM 45.7 °F 38.0 °F 45.5 °F 99% 29.15 in 2.5 mi NW 19.6 mph 24.2 mph 0.02 in Rain Rain
8:16 PM 45.7 °F 38.6 °F 45.5 °F 99% 29.15 in 2.5 mi NW 17.3 mph 24.2 mph 0.03 in Rain Rain
8:35 PM 44.6 °F 35.7 °F 44.2 °F 99% 29.16 in 2.0 mi NW 24.2 mph 34.5 mph 0.06 in Rain Light Rain
8:36 PM 44.6 °F 35.7 °F 44.1 °F 98% 29.16 in 2.0 mi NW 24.2 mph 34.5 mph 0.06 in Rain Light Rain
8:58 PM 43.0 °F 34.0 °F 42.3 °F 97% 29.18 in 3.0 mi NW 21.9 mph 38.0 mph 0.08 in Rain Light Rain
9:16 PM 42.8 °F 33.3 °F 41.9 °F 97% 29.19 in 4.0 mi NW 24.2 mph 36.8 mph 0.01 in Rain Light Rain
9:35 PM 42.1 °F 32.1 °F 41.2 °F 97% 29.20 in 7.0 mi NW 25.3 mph 36.8 mph 0.01 in Rain Light Rain
9:36 PM 42.1 °F 31.7 °F 41.2 °F 97% 29.20 in 7.0 mi NW 27.6 mph 36.8 mph 0.01 in Rain Light Rain
9:55 PM 41.9 °F 31.5 °F 41.0 °F 97% 29.21 in 5.0 mi NW 27.6 mph 36.8 mph 0.01 in Rain Light Rain
9:56 PM 41.9 °F 31.9 °F 41.0 °F 97% 29.21 in 5.0 mi NW 25.3 mph 36.8 mph 0.01 in Rain Light Rain
10:18 PM 41.9 °F 33.1 °F 40.6 °F 95% 29.23 in 10.0 mi NW 19.6 mph 33.4 mph N/A   Overcast
10:37 PM 41.4 °F 30.7 °F 40.1 °F 95% 29.24 in 5.0 mi NW 27.6 mph 38.0 mph N/A Rain Light Rain
10:55 PM 41.2 °F 31.4 °F 39.7 °F 95% 29.25 in 10.0 mi NW 23.0 mph 34.5 mph N/A Rain Light Rain
11:15 PM 41.0 °F 31.9 °F 39.7 °F 95% 29.27 in 10.0 mi NW 19.6 mph 35.7 mph 0.01 in Rain Light Rain
11:16 PM 41.0 °F 32.2 °F 39.7 °F 95% 29.27 in 10.0 mi NW 18.4 mph 34.5 mph 0.01 in Rain Light Rain
11:35 PM 41.2 °F 30.9 °F 40.1 °F 96% 29.28 in 7.0 mi NW 25.3 mph 36.8 mph 0.03 in Rain Light Rain
11:39 PM 41.4 °F 30.7 °F 40.1 °F 95% 29.28 in 7.0 mi NW 27.6 mph 36.8 mph 0.04 in Rain Rain
11:57 PM 41.9 °F 32.3 °F 41.0 °F 97% 29.29 in 7.0 mi NW 23.0 mph 29.9 mph 0.06 in Rain Rain